Time;durP1;ratioP1;P1;durP2;ratioP2;P2;SDS_P1;SDS_P2;PMS_P1;PMS_P2;Temp;Humidity;BMP_temperature;BMP_pressure;BME280_temperature;BME280_humidity;BME280_pressure;Samples;Min_cycle;Max_cycle;Signal;HPM_P1;HPM_P2
2023/01/29 00:02:16;;;;;;;27.05;16.27;;;1.10;63.40;;;;;;5028495;28;20041;-43
2023/01/29 00:04:43;;;;;;;29.15;16.75;;;1.10;63.40;;;;;;5019505;28;20072;-42
2023/01/29 00:07:10;;;;;;;25.25;15.93;;;1.10;63.50;;;;;;5029264;28;20612;-44
2023/01/29 00:09:37;;;;;;;30.67;16.85;;;1.10;63.50;;;;;;5028163;28;20357;-48
2023/01/29 00:12:03;;;;;;;29.88;17.27;;;1.10;63.50;;;;;;5028701;28;20052;-45
2023/01/29 00:14:30;;;;;;;26.70;15.18;;;1.10;63.50;;;;;;5023996;28;20129;-44
2023/01/29 00:16:57;;;;;;;28.45;16.95;;;1.10;63.50;;;;;;5036835;28;20091;-45
2023/01/29 00:19:23;;;;;;;26.38;16.48;;;1.00;63.50;;;;;;5028128;28;20556;-45
2023/01/29 00:21:50;;;;;;;28.13;16.98;;;1.10;63.60;;;;;;5029191;28;20065;-49
2023/01/29 00:24:17;;;;;;;27.23;16.00;;;1.00;63.50;;;;;;5022634;28;20042;-44
2023/01/29 00:26:43;;;;;;;30.90;16.42;;;1.00;63.50;;;;;;5030246;28;20053;-43
2023/01/29 00:29:10;;;;;;;29.33;16.75;;;1.00;63.50;;;;;;5031441;28;20042;-46
2023/01/29 00:31:37;;;;;;;28.40;16.45;;;1.00;63.50;;;;;;5026014;28;20132;-44
2023/01/29 00:34:06;;;;;;;25.95;16.35;;;1.00;63.50;;;;;;5031963;28;20128;-49
2023/01/29 00:36:32;;;;;;;30.30;15.55;;;1.00;63.50;;;;;;5030589;28;20045;-46
2023/01/29 00:39:09;;;;;;;26.27;16.02;;;1.00;63.50;;;;;;5031200;28;20041;-44
2023/01/29 00:50:11;;;;;;;25.15;14.98;;;1.00;63.50;;;;;;4966710;28;20214;-42
2023/01/29 00:52:39;;;;;;;26.23;15.23;;;0.90;63.40;;;;;;5030176;28;20053;-45
2023/01/29 00:55:09;;;;;;;28.42;15.25;;;0.90;63.50;;;;;;5031195;28;20052;-44
2023/01/29 00:57:38;;;;;;;25.85;15.57;;;0.90;63.40;;;;;;5030965;28;20051;-47
2023/01/29 01:00:08;;;;;;;26.15;15.48;;;0.90;63.50;;;;;;5026083;28;20042;-45
2023/01/29 01:05:20;;;;;;;27.38;15.80;;;0.80;63.50;;;;;;5040227;28;20041;-49
2023/01/29 01:07:52;;;;;;;26.15;14.57;;;0.90;63.60;;;;;;5031751;28;20553;-48
2023/01/29 01:10:31;;;;;;;25.33;16.50;;;0.90;63.60;;;;;;5025482;28;20034;-48
2023/01/29 01:13:04;;;;;;;23.77;14.75;;;0.80;63.40;;;;;;5031439;28;20041;-45
2023/01/29 01:15:34;;;;;;;24.67;15.20;;;0.80;63.40;;;;;;5030655;28;20555;-46
2023/01/29 01:18:06;;;;;;;25.38;14.88;;;0.80;63.50;;;;;;5027595;28;20050;-44
2023/01/29 01:20:35;;;;;;;27.40;15.15;;;0.80;63.50;;;;;;5026853;28;20527;-45
2023/01/29 01:23:02;;;;;;;28.05;15.65;;;0.80;63.60;;;;;;5032369;28;20065;-49
2023/01/29 01:25:29;;;;;;;28.50;16.15;;;0.80;63.60;;;;;;5030793;28;20041;-48
2023/01/29 01:27:58;;;;;;;27.85;15.93;;;0.80;63.60;;;;;;5028515;28;20152;-48
2023/01/29 01:30:27;;;;;;;26.75;16.83;;;0.80;63.70;;;;;;5030989;28;20503;-46
2023/01/29 01:32:57;;;;;;;29.17;16.25;;;0.80;63.70;;;;;;5030558;28;20422;-46
2023/01/29 01:35:24;;;;;;;29.88;17.35;;;0.80;63.80;;;;;;5045629;28;20044;-45
2023/01/29 01:37:50;;;;;;;31.75;17.40;;;0.80;63.90;;;;;;5026912;28;20047;-45
2023/01/29 01:40:20;;;;;;;34.65;17.55;;;0.70;63.80;;;;;;5032257;28;20108;-44
2023/01/29 01:42:55;;;;;;;28.60;16.13;;;0.80;63.90;;;;;;5031035;28;20045;-44
2023/01/29 01:45:26;;;;;;;27.48;16.50;;;0.80;63.90;;;;;;5030666;28;20033;-45
2023/01/29 01:48:14;;;;;;;32.35;18.27;;;0.70;63.80;;;;;;5018517;28;20065;-45
2023/01/29 01:50:48;;;;;;;29.92;16.90;;;0.80;63.90;;;;;;5042012;28;20045;-45
2023/01/29 01:53:21;;;;;;;33.58;18.50;;;0.80;63.90;;;;;;5039951;28;20494;-48
2023/01/29 01:55:57;;;;;;;30.92;18.02;;;0.80;63.90;;;;;;5027695;28;20059;-45
2023/01/29 01:58:37;;;;;;;31.85;17.83;;;0.70;63.90;;;;;;5040860;28;20064;-46
2023/01/29 02:01:07;;;;;;;32.30;18.63;;;0.70;63.80;;;;;;5045696;28;20091;-45
2023/01/29 02:09:33;;;;;;;27.00;15.43;;;0.80;63.90;;;;;;5036601;28;20003;-45
2023/01/29 02:12:05;;;;;;;28.55;17.02;;;0.70;63.60;;;;;;5030051;28;20055;-45
2023/01/29 02:14:39;;;;;;;29.98;18.10;;;0.70;63.70;;;;;;5024572;28;20068;-46
2023/01/29 02:17:08;;;;;;;23.17;13.17;;;0.70;63.80;;;;;;5032585;28;20030;-45
2023/01/29 02:19:54;;;;;;;36.50;19.30;;;0.70;63.80;;;;;;5045363;28;20800;-44
2023/01/29 02:22:49;;;;;;;34.70;19.15;;;0.70;63.90;;;;;;5022287;28;20497;-45
2023/01/29 02:25:45;;;;;;;30.70;18.38;;;0.70;63.90;;;;;;5027114;28;20117;-44
2023/01/29 02:28:14;;;;;;;35.47;18.83;;;0.70;63.80;;;;;;5039022;28;20128;-46
2023/01/29 02:31:01;;;;;;;31.98;19.05;;;0.70;63.90;;;;;;5028112;28;20045;-46
2023/01/29 02:33:40;;;;;;;36.25;19.10;;;0.70;63.90;;;;;;5019721;28;20096;-43
2023/01/29 02:36:33;;;;;;;38.83;21.00;;;0.60;63.80;;;;;;5028617;28;20048;-45
2023/01/29 02:39:24;;;;;;;34.70;18.90;;;0.60;63.80;;;;;;5027661;28;20064;-45
2023/01/29 02:42:23;;;;;;;30.77;18.60;;;0.60;64.00;;;;;;5027898;28;20037;-45
2023/01/29 02:45:07;;;;;;;31.08;17.75;;;0.60;64.10;;;;;;5040189;28;20072;-45
2023/01/29 02:47:59;;;;;;;32.75;17.67;;;0.60;64.20;;;;;;5029263;28;20107;-48
2023/01/29 02:50:53;;;;;;;37.20;18.58;;;0.70;64.40;;;;;;5022039;28;20505;-44
2023/01/29 02:53:55;;;;;;;30.70;17.50;;;0.60;64.40;;;;;;5022442;28;20055;-45
2023/01/29 02:56:47;;;;;;;32.22;16.90;;;0.70;64.50;;;;;;5027734;28;20553;-48
2023/01/29 02:59:21;;;;;;;32.95;18.80;;;0.70;64.40;;;;;;5022776;28;20045;-46
2023/01/29 03:01:54;;;;;;;34.20;18.92;;;0.70;64.30;;;;;;5025083;28;20041;-44
2023/01/29 03:04:29;;;;;;;33.47;19.25;;;0.70;64.40;;;;;;5028972;28;20037;-45
2023/01/29 03:07:02;;;;;;;32.33;17.95;;;0.70;64.50;;;;;;5029743;28;20132;-48
2023/01/29 03:09:40;;;;;;;32.53;19.42;;;0.70;64.50;;;;;;5028050;28;20041;-47
2023/01/29 03:12:27;;;;;;;39.20;22.17;;;0.70;64.50;;;;;;5022685;28;20103;-46
2023/01/29 03:15:10;;;;;;;39.55;22.08;;;0.70;64.40;;;;;;5026929;28;20068;-43
2023/01/29 03:18:03;;;;;;;37.85;20.05;;;0.70;64.40;;;;;;5028680;28;20048;-48
2023/01/29 03:20:38;;;;;;;38.75;20.83;;;0.70;64.50;;;;;;5017373;28;20081;-45
2023/01/29 03:23:13;;;;;;;36.35;20.38;;;0.70;64.40;;;;;;5028555;28;20115;-45
2023/01/29 03:34:33;;;;;;;35.70;19.80;;;0.70;64.50;;;;;;5044338;28;20053;-44
2023/01/29 03:37:14;;;;;;;35.80;19.30;;;0.70;64.80;;;;;;5028277;28;20053;-46
2023/01/29 03:39:44;;;;;;;42.30;21.75;;;0.80;64.80;;;;;;5021690;28;20087;-45
2023/01/29 03:42:25;;;;;;;38.08;21.52;;;0.80;64.90;;;;;;5029345;28;20048;-46
2023/01/29 03:45:07;;;;;;;29.37;16.10;;;0.80;65.80;;;;;;5028157;28;20537;-45
2023/01/29 03:47:45;;;;;;;36.88;21.40;;;0.80;66.00;;;;;;5025385;28;20871;-45
2023/01/29 03:50:31;;;;;;;43.15;22.73;;;0.90;66.00;;;;;;5033193;28;20042;-44
2023/01/29 03:53:18;;;;;;;45.33;25.45;;;1.00;66.60;;;;;;5042632;28;20063;-48
2023/01/29 03:56:06;;;;;;;41.97;23.25;;;1.00;66.60;;;;;;5026905;28;20417;-47
2023/01/29 03:58:57;;;;;;;48.80;25.02;;;1.10;66.70;;;;;;5027287;28;20045;-45
2023/01/29 04:01:40;;;;;;;42.50;23.05;;;1.20;66.60;;;;;;5040629;28;20038;-45
2023/01/29 04:04:17;;;;;;;48.65;26.40;;;1.20;66.70;;;;;;5029203;28;20057;-44
2023/01/29 04:06:52;;;;;;;46.13;23.35;;;1.30;66.80;;;;;;5044918;28;20050;-47
2023/01/29 04:09:30;;;;;;;47.60;25.92;;;1.30;66.70;;;;;;5030608;28;20045;-43
2023/01/29 04:12:09;;;;;;;46.67;25.40;;;1.40;67.50;;;;;;5030919;28;20459;-45
2023/01/29 04:14:39;;;;;;;37.85;19.20;;;1.40;67.00;;;;;;5047048;28;20049;-45
2023/01/29 04:17:17;;;;;;;48.75;28.60;;;1.60;66.90;;;;;;5031814;28;20555;-44
2023/01/29 04:19:57;;;;;;;49.15;24.67;;;1.60;67.10;;;;;;5047906;28;20412;-47
2023/01/29 04:22:37;;;;;;;48.35;26.40;;;1.60;66.80;;;;;;5032259;28;20044;-43
2023/01/29 04:25:14;;;;;;;47.95;25.27;;;1.70;67.60;;;;;;5029864;28;20053;-48
2023/01/29 04:28:11;;;;;;;49.08;26.75;;;1.70;66.90;;;;;;5039185;28;20076;-45
2023/01/29 04:30:53;;;;;;;50.70;27.83;;;1.80;67.20;;;;;;5041880;28;20045;-45
2023/01/29 04:34:02;;;;;;;44.97;24.30;;;1.80;67.00;;;;;;5024338;28;20120;-44
2023/01/29 04:36:51;;;;;;;46.15;26.30;;;1.90;67.10;;;;;;5027583;28;20128;-45
2023/01/29 04:39:42;;;;;;;46.10;26.00;;;1.90;66.70;;;;;;5023674;28;20045;-44
2023/01/29 04:42:35;;;;;;;50.40;25.52;;;1.90;66.60;;;;;;5032163;28;20072;-46
2023/01/29 04:45:18;;;;;;;46.83;24.90;;;2.00;66.60;;;;;;5020710;28;20402;-45
2023/01/29 04:48:21;;;;;;;51.67;26.58;;;2.00;66.50;;;;;;5029290;28;20494;-45
2023/01/29 04:50:59;;;;;;;52.33;28.33;;;2.00;66.60;;;;;;5031334;28;20053;-44
2023/01/29 04:54:05;;;;;;;53.72;25.58;;;1.90;66.20;;;;;;5023368;28;20624;-44
2023/01/29 04:56:55;;;;;;;50.72;25.38;;;1.90;66.60;;;;;;5025683;28;20136;-45
2023/01/29 04:59:31;;;;;;;50.97;25.13;;;1.90;66.20;;;;;;5031540;28;20060;-47
2023/01/29 05:02:01;;;;;;;47.45;24.10;;;1.90;66.10;;;;;;5026085;28;20125;-45
2023/01/29 05:04:32;;;;;;;46.63;25.83;;;1.90;66.20;;;;;;5028701;28;20038;-43
2023/01/29 05:07:03;;;;;;;45.90;25.65;;;1.80;66.30;;;;;;5029539;28;20045;-44
2023/01/29 05:09:35;;;;;;;37.88;20.75;;;1.80;66.40;;;;;;5031178;28;20573;-48
2023/01/29 05:12:14;;;;;;;45.35;23.33;;;1.80;66.40;;;;;;5025487;28;20538;-44
2023/01/29 05:14:44;;;;;;;55.33;28.00;;;1.80;66.40;;;;;;5031008;28;20405;-47
2023/01/29 05:17:17;;;;;;;52.07;27.67;;;1.80;66.40;;;;;;5031735;28;20052;-44
2023/01/29 05:19:45;;;;;;;49.35;27.25;;;1.80;66.40;;;;;;5029783;28;20125;-47
2023/01/29 05:22:17;;;;;;;51.88;26.60;;;1.80;66.50;;;;;;5022823;28;20053;-46
2023/01/29 05:24:45;;;;;;;54.03;26.55;;;1.80;66.60;;;;;;5029908;28;20057;-46
2023/01/29 05:30:11;;;;;;;49.25;25.88;;;1.80;66.70;;;;;;5030047;28;20046;-44
2023/01/29 05:32:40;;;;;;;50.47;26.20;;;1.80;67.20;;;;;;5026946;28;20822;-46
2023/01/29 05:35:12;;;;;;;37.80;19.30;;;1.80;66.60;;;;;;5030098;28;20056;-46
2023/01/29 05:37:39;;;;;;;48.67;25.45;;;1.90;66.70;;;;;;5031782;28;20042;-47
2023/01/29 05:40:07;;;;;;;56.30;26.92;;;1.80;66.50;;;;;;5030445;28;20038;-47
2023/01/29 05:42:34;;;;;;;51.67;26.20;;;1.80;66.60;;;;;;5033280;28;20052;-44
2023/01/29 05:45:01;;;;;;;53.67;28.65;;;1.80;66.60;;;;;;5030031;28;20045;-49
2023/01/29 05:47:29;;;;;;;54.03;26.48;;;1.90;66.80;;;;;;5031437;28;20045;-44
2023/01/29 05:49:55;;;;;;;56.50;29.23;;;1.80;66.70;;;;;;5024315;28;20120;-45
2023/01/29 05:52:25;;;;;;;51.10;27.23;;;1.80;66.80;;;;;;5023728;28;20041;-45
2023/01/29 05:54:53;;;;;;;48.75;27.27;;;1.80;66.80;;;;;;5030189;28;20052;-47
2023/01/29 05:57:20;;;;;;;51.97;27.75;;;1.80;66.80;;;;;;5028611;28;20548;-44
2023/01/29 05:59:52;;;;;;;53.42;26.92;;;1.80;66.90;;;;;;5026852;28;20112;-46
2023/01/29 06:02:19;;;;;;;52.08;27.60;;;1.80;66.90;;;;;;5029782;28;20513;-45
2023/01/29 06:04:46;;;;;;;49.92;27.27;;;1.80;66.90;;;;;;5030131;28;20556;-45
2023/01/29 06:07:15;;;;;;;50.67;27.17;;;1.80;66.90;;;;;;5030687;28;20121;-46
2023/01/29 06:09:42;;;;;;;52.88;27.02;;;1.80;67.10;;;;;;5031561;28;20053;-44
2023/01/29 06:12:14;;;;;;;47.30;27.23;;;1.80;67.10;;;;;;5030993;28;20124;-48
2023/01/29 06:14:40;;;;;;;50.28;26.42;;;1.80;67.10;;;;;;5030865;28;20228;-46
2023/01/29 06:17:07;;;;;;;51.13;26.95;;;1.90;67.20;;;;;;5029035;28;20057;-45
2023/01/29 06:19:34;;;;;;;55.22;28.25;;;1.90;67.20;;;;;;5033051;28;20051;-44
2023/01/29 06:22:01;;;;;;;54.78;27.83;;;1.90;67.30;;;;;;5030217;28;20045;-45
2023/01/29 06:24:31;;;;;;;51.92;26.80;;;1.90;67.40;;;;;;5030205;28;20029;-43
2023/01/29 06:26:59;;;;;;;52.22;28.50;;;1.90;67.40;;;;;;5030522;28;20132;-49
2023/01/29 06:29:35;;;;;;;52.05;27.88;;;2.00;67.60;;;;;;5031948;28;20120;-45
2023/01/29 06:32:08;;;;;;;;;;;2.00;67.60;;;;;;5029202;28;20046;-45
2023/01/29 06:34:35;;;;;;;51.45;25.67;;;2.10;68.20;;;;;;5030271;28;19931;-46
2023/01/29 06:37:04;;;;;;;51.85;28.63;;;2.10;67.20;;;;;;5030928;28;20140;-44
2023/01/29 06:39:34;;;;;;;52.67;30.85;;;2.10;67.20;;;;;;5028630;28;20037;-46
2023/01/29 06:42:07;;;;;;;52.10;27.92;;;2.10;67.30;;;;;;5030147;28;20506;-49
2023/01/29 06:44:36;;;;;;;54.97;29.90;;;2.20;67.40;;;;;;5030327;28;20045;-44
2023/01/29 06:47:08;;;;;;;40.20;22.38;;;2.20;67.40;;;;;;5025264;28;20876;-47
2023/01/29 06:49:45;;;;;;;54.50;29.25;;;2.20;67.40;;;;;;5030433;28;20401;-45
2023/01/29 06:52:14;;;;;;;60.38;33.13;;;2.30;67.40;;;;;;5029420;28;20053;-44
2023/01/29 06:54:43;;;;;;;59.22;28.73;;;2.30;68.00;;;;;;5028083;28;20053;-48
2023/01/29 06:57:13;;;;;;;54.53;28.77;;;2.30;67.40;;;;;;5028713;28;20041;-44
2023/01/29 06:59:42;;;;;;;55.60;29.63;;;2.40;67.40;;;;;;5027956;28;20045;-46
2023/01/29 07:02:09;;;;;;;54.97;28.40;;;2.40;67.20;;;;;;5030770;28;20409;-49
2023/01/29 07:04:36;;;;;;;55.70;29.42;;;2.40;67.20;;;;;;5027430;28;20072;-45
2023/01/29 07:07:12;;;;;;;58.63;32.35;;;2.50;67.20;;;;;;5025509;28;20494;-47
2023/01/29 07:09:45;;;;;;;51.92;28.25;;;2.50;67.10;;;;;;5028737;28;20069;-48
2023/01/29 07:12:12;;;;;;;52.63;28.05;;;2.50;67.10;;;;;;5028572;28;20090;-46
2023/01/29 07:14:43;;;;;;;55.13;29.75;;;2.50;67.00;;;;;;5025115;28;20037;-50
2023/01/29 07:17:09;;;;;;;52.50;27.95;;;2.50;66.90;;;;;;5037398;28;20137;-47
2023/01/29 07:19:39;;;;;;;51.85;26.38;;;2.50;67.00;;;;;;5025234;28;20506;-47
2023/01/29 07:22:08;;;;;;;58.97;29.42;;;2.60;67.20;;;;;;5028723;28;20136;-46
2023/01/29 07:24:35;;;;;;;87.38;46.55;;;2.60;67.20;;;;;;5028398;28;20049;-50
2023/01/29 07:27:06;;;;;;;94.90;50.10;;;2.60;67.20;;;;;;5023057;28;20468;-51
2023/01/29 07:29:33;;;;;;;61.63;32.88;;;2.60;67.20;;;;;;5027557;28;20079;-47
2023/01/29 07:31:59;;;;;;;55.15;30.75;;;2.60;67.20;;;;;;5017047;28;20535;-47
2023/01/29 07:34:29;;;;;;;52.90;29.23;;;2.70;67.10;;;;;;5023051;28;20045;-49
2023/01/29 07:36:57;;;;;;;59.50;32.80;;;2.70;67.10;;;;;;5023822;28;20049;-48
2023/01/29 07:39:24;;;;;;;55.38;30.95;;;2.70;67.10;;;;;;5032141;28;20041;-45
2023/01/29 07:41:51;;;;;;;55.63;29.58;;;2.70;67.00;;;;;;5032873;28;20164;-50
2023/01/29 07:44:20;;;;;;;51.95;29.67;;;2.70;67.00;;;;;;5027664;28;20490;-45
2023/01/29 07:46:47;;;;;;;60.85;31.27;;;2.70;67.00;;;;;;5033928;28;20047;-50
2023/01/29 07:49:15;;;;;;;54.42;28.98;;;2.80;67.00;;;;;;5028992;28;20077;-46
2023/01/29 07:51:41;;;;;;;54.47;28.38;;;2.80;67.00;;;;;;5031779;28;20053;-48
2023/01/29 07:54:08;;;;;;;64.75;36.00;;;2.80;67.00;;;;;;5028004;28;20051;-45
2023/01/29 07:56:36;;;;;;;60.92;31.15;;;2.80;67.00;;;;;;5030851;28;20120;-46
2023/01/29 07:59:03;;;;;;;54.58;27.33;;;2.80;67.00;;;;;;5032389;28;20048;-46
2023/01/29 08:01:30;;;;;;;58.15;32.28;;;2.80;67.00;;;;;;5030271;28;20390;-50
2023/01/29 08:03:56;;;;;;;61.90;31.75;;;2.80;67.00;;;;;;5028199;28;20055;-46
2023/01/29 08:06:23;;;;;;;58.40;29.80;;;2.90;67.20;;;;;;5031630;28;20073;-47
2023/01/29 08:08:51;;;;;;;58.25;35.28;;;2.90;67.10;;;;;;5032215;28;20490;-47
2023/01/29 08:11:17;;;;;;;52.97;31.50;;;2.90;67.00;;;;;;5029768;28;20408;-46
2023/01/29 08:13:47;;;;;;;59.33;35.75;;;2.90;67.00;;;;;;5023955;28;20057;-47
2023/01/29 08:16:16;;;;;;;61.42;34.08;;;2.90;67.00;;;;;;5031390;28;20498;-46
2023/01/29 08:18:46;;;;;;;54.25;31.27;;;3.00;66.90;;;;;;5032317;28;20693;-47
2023/01/29 08:21:13;;;;;;;55.85;30.33;;;3.00;66.90;;;;;;5029868;28;20069;-46
2023/01/29 08:23:40;;;;;;;54.90;30.27;;;3.00;66.90;;;;;;5031385;28;20051;-48
2023/01/29 08:26:07;;;;;;;54.38;28.67;;;3.00;67.00;;;;;;5031953;28;20061;-47
2023/01/29 08:28:37;;;;;;;49.88;28.08;;;3.10;67.00;;;;;;5032197;28;20053;-46
2023/01/29 08:31:12;;;;;;;48.65;26.77;;;3.10;67.00;;;;;;5030748;28;20041;-46
2023/01/29 08:33:41;;;;;;;51.17;27.27;;;3.10;67.10;;;;;;5028215;28;20536;-46
2023/01/29 08:36:08;;;;;;;53.85;28.52;;;3.10;67.00;;;;;;5031439;28;20045;-50
2023/01/29 08:38:35;;;;;;;54.08;28.30;;;3.20;67.10;;;;;;5028390;28;20764;-48
2023/01/29 08:41:02;;;;;;;50.20;27.15;;;3.20;67.00;;;;;;5033053;28;20482;-47
2023/01/29 08:43:29;;;;;;;58.08;28.40;;;3.30;67.00;;;;;;5028248;28;20124;-46
2023/01/29 08:45:56;;;;;;;51.65;27.77;;;3.30;66.80;;;;;;5032024;28;20068;-46
2023/01/29 08:48:24;;;;;;;54.88;27.63;;;3.30;66.70;;;;;;5031887;28;20155;-47
2023/01/29 08:50:50;;;;;;;57.55;30.58;;;3.30;66.70;;;;;;5032940;28;20088;-51
2023/01/29 08:53:18;;;;;;;49.13;26.33;;;3.40;66.80;;;;;;5031362;28;20045;-48
2023/01/29 08:55:45;;;;;;;58.15;29.55;;;3.40;66.70;;;;;;5032245;28;20042;-49
2023/01/29 08:58:12;;;;;;;47.50;27.77;;;3.40;66.80;;;;;;5032466;28;20064;-48
2023/01/29 09:00:40;;;;;;;50.28;27.55;;;3.40;66.70;;;;;;5033472;28;20591;-49
2023/01/29 09:03:08;;;;;;;52.08;27.85;;;3.50;66.70;;;;;;5032818;28;20051;-48
2023/01/29 09:05:37;;;;;;;54.15;27.67;;;3.50;66.60;;;;;;5031861;28;20046;-48
2023/01/29 09:08:04;;;;;;;55.72;29.02;;;3.50;66.50;;;;;;5025557;28;20120;-51
2023/01/29 09:10:31;;;;;;;46.75;26.38;;;3.50;66.50;;;;;;5032791;28;20056;-47
2023/01/29 09:12:58;;;;;;;51.63;27.80;;;3.50;66.50;;;;;;5032627;28;20049;-50
2023/01/29 09:15:25;;;;;;;49.53;28.02;;;3.50;66.50;;;;;;5031612;28;20045;-48
2023/01/29 09:17:52;;;;;;;51.55;28.33;;;3.60;66.50;;;;;;5027093;28;20088;-45
2023/01/29 09:20:19;;;;;;;46.47;24.95;;;3.60;66.50;;;;;;5029417;28;20053;-51
2023/01/29 09:22:46;;;;;;;53.47;27.67;;;3.60;66.50;;;;;;5031189;28;20052;-50
2023/01/29 09:25:13;;;;;;;48.92;28.05;;;3.60;66.40;;;;;;5027828;28;20049;-51
2023/01/29 09:27:41;;;;;;;46.60;25.60;;;3.60;66.40;;;;;;5024578;28;20513;-51
2023/01/29 09:30:08;;;;;;;53.78;28.90;;;3.60;66.40;;;;;;5030357;28;20140;-50
2023/01/29 09:32:35;;;;;;;48.35;26.67;;;3.60;66.40;;;;;;5031352;28;20049;-48
2023/01/29 09:35:22;;;;;;;48.63;26.15;;;3.60;66.40;;;;;;5030995;28;20049;-50
2023/01/29 09:37:50;;;;;;;50.00;26.00;;;3.70;66.40;;;;;;5032309;28;20120;-48
2023/01/29 09:40:31;;;;;;;48.33;24.80;;;3.70;67.00;;;;;;5030834;28;20041;-51
2023/01/29 09:43:13;;;;;;;50.60;27.70;;;3.70;66.40;;;;;;5026652;28;20044;-47
2023/01/29 09:46:04;;;;;;;46.85;26.83;;;3.80;66.40;;;;;;5022004;28;20124;-49
2023/01/29 09:48:34;;;;;;;47.40;24.27;;;3.80;66.40;;;;;;5027883;28;20437;-51
2023/01/29 09:51:06;;;;;;;50.70;27.05;;;3.80;66.30;;;;;;5030024;28;20520;-47
2023/01/29 09:53:46;;;;;;;44.45;24.85;;;3.80;66.40;;;;;;5023459;28;20480;-47
2023/01/29 09:56:21;;;;;;;48.55;26.48;;;3.90;66.50;;;;;;5025482;28;20048;-47
2023/01/29 09:58:47;;;;;;;51.40;24.75;;;3.90;66.50;;;;;;5030350;28;20042;-48
2023/01/29 10:02:03;;;;;;;45.65;24.92;;;3.90;66.40;;;;;;5030249;28;20116;-50
2023/01/29 10:05:02;;;;;;;44.40;24.52;;;4.00;66.50;;;;;;4996868;28;20517;-49
2023/01/29 10:07:39;;;;;;;43.50;23.98;;;4.00;66.20;;;;;;5014887;28;20092;-49
2023/01/29 10:10:30;;;;;;;44.42;23.50;;;4.10;66.10;;;;;;5030528;28;20049;-47
2023/01/29 10:13:31;;;;;;;51.42;25.80;;;4.10;66.20;;;;;;5029076;28;20038;-48
2023/01/29 10:16:34;;;;;;;42.92;23.63;;;4.20;66.10;;;;;;5030357;28;20464;-50
2023/01/29 10:19:18;;;;;;;42.75;22.02;;;4.20;65.90;;;;;;5029997;28;20092;-47
2023/01/29 10:22:00;;;;;;;44.22;24.40;;;4.20;65.80;;;;;;5026610;28;20049;-49
2023/01/29 10:24:50;;;;;;;54.97;31.05;;;4.30;65.90;;;;;;5026706;28;20497;-48
2023/01/29 10:27:17;;;;;;;84.80;45.15;;;4.30;65.80;;;;;;5031747;28;20040;-48
2023/01/29 10:29:47;;;;;;;86.00;49.20;;;4.40;65.90;;;;;;5030740;28;20520;-48
2023/01/29 10:32:20;;;;;;;88.53;46.58;;;4.40;65.90;;;;;;5027523;28;20080;-48
2023/01/29 10:35:03;;;;;;;62.63;35.13;;;4.40;65.90;;;;;;5031842;28;20049;-50
2023/01/29 10:37:41;;;;;;;50.72;27.30;;;4.50;65.90;;;;;;5023304;28;20045;-47
2023/01/29 10:40:21;;;;;;;43.00;23.83;;;4.50;65.60;;;;;;5028530;28;20041;-49
2023/01/29 10:43:04;;;;;;;44.95;27.17;;;4.60;65.50;;;;;;5022864;28;20477;-47
2023/01/29 10:45:49;;;;;;;39.85;23.23;;;4.60;65.40;;;;;;5018955;28;20045;-48
2023/01/29 10:48:39;;;;;;;40.00;22.17;;;4.60;65.40;;;;;;5030870;28;20052;-51
2023/01/29 10:51:29;;;;;;;37.00;21.45;;;4.70;65.40;;;;;;5030526;28;20053;-47
2023/01/29 10:54:12;;;;;;;39.70;22.48;;;4.70;65.20;;;;;;5027698;28;20640;-46
2023/01/29 10:56:38;;;;;;;;;;;4.70;65.20;;;;;;5024355;28;20053;-49
2023/01/29 10:59:28;;;;;;;40.42;20.95;;;4.80;65.40;;;;;;5030096;28;19920;-45
2023/01/29 11:01:59;;;;;;;37.88;21.23;;;4.80;64.90;;;;;;5018235;28;20049;-50
2023/01/29 11:04:27;;;;;;;44.35;23.52;;;4.90;65.00;;;;;;5026049;28;20152;-46
2023/01/29 11:06:53;;;;;;;41.92;23.48;;;4.90;65.00;;;;;;5023004;28;20045;-46
2023/01/29 11:09:23;;;;;;;41.38;22.73;;;4.90;65.00;;;;;;5027721;28;20517;-47
2023/01/29 11:11:52;;;;;;;42.33;23.90;;;4.90;65.10;;;;;;5030242;28;20520;-47
2023/01/29 11:14:51;;;;;;;41.95;22.85;;;4.90;65.00;;;;;;5027320;28;20585;-46
2023/01/29 11:17:21;;;;;;;42.03;22.50;;;5.00;64.90;;;;;;5028251;28;20433;-49
2023/01/29 11:19:50;;;;;;;38.80;22.35;;;5.00;64.90;;;;;;5024945;28;20843;-46
2023/01/29 11:22:19;;;;;;;36.42;22.85;;;5.00;64.90;;;;;;5025951;28;20033;-45
2023/01/29 11:25:16;;;;;;;41.65;23.77;;;5.00;64.80;;;;;;5026227;28;20049;-49
2023/01/29 11:27:55;;;;;;;39.00;22.52;;;5.10;64.60;;;;;;5026531;28;20055;-48
2023/01/29 11:30:26;;;;;;;37.65;22.48;;;5.10;64.80;;;;;;5026564;28;20576;-51
2023/01/29 11:33:07;;;;;;;40.10;23.73;;;5.10;64.80;;;;;;5023423;28;20037;-46
2023/01/29 11:35:36;;;;;;;37.28;21.92;;;5.20;64.80;;;;;;5018765;28;20056;-47
2023/01/29 11:38:17;;;;;;;39.17;22.65;;;5.20;64.70;;;;;;5023180;28;20053;-50
2023/01/29 11:40:44;;;;;;;37.30;21.70;;;5.20;64.50;;;;;;5023536;28;20038;-48
2023/01/29 11:43:20;;;;;;;40.22;24.20;;;5.30;64.60;;;;;;5041916;28;20054;-46
2023/01/29 11:45:49;;;;;;;39.97;21.52;;;5.30;64.50;;;;;;5027176;28;20071;-51
2023/01/29 11:48:19;;;;;;;40.25;23.08;;;5.30;64.40;;;;;;5028880;28;20050;-46
2023/01/29 11:50:54;;;;;;;38.78;23.02;;;5.30;64.40;;;;;;5020183;28;20076;-51
2023/01/29 11:53:43;;;;;;;39.30;22.38;;;5.30;64.50;;;;;;5025282;28;20069;-48
2023/01/29 11:56:27;;;;;;;34.38;20.63;;;5.30;64.50;;;;;;5025232;28;20072;-48
2023/01/29 11:58:56;;;;;;;30.00;16.50;;;5.30;64.50;;;;;;5022546;28;21237;-47
2023/01/29 12:01:35;;;;;;;39.80;24.40;;;5.40;64.40;;;;;;5027893;28;20055;-47
2023/01/29 12:04:03;;;;;;;37.75;23.33;;;5.40;64.30;;;;;;5027980;28;20042;-49
2023/01/29 12:06:36;;;;;;;34.08;20.83;;;5.40;64.30;;;;;;5025145;28;20046;-51
2023/01/29 12:09:14;;;;;;;37.85;22.23;;;5.40;64.20;;;;;;5025766;28;20604;-49
2023/01/29 12:11:42;;;;;;;37.92;21.92;;;5.40;64.20;;;;;;5027534;28;20056;-46
2023/01/29 12:14:27;;;;;;;35.88;21.65;;;5.40;64.30;;;;;;5021693;28;20076;-49
2023/01/29 12:17:10;;;;;;;37.45;21.02;;;5.50;64.40;;;;;;5025507;28;20576;-50
2023/01/29 12:19:53;;;;;;;38.70;22.75;;;5.50;64.40;;;;;;5023080;28;20803;-48
2023/01/29 12:22:36;;;;;;;32.67;20.63;;;5.50;64.20;;;;;;5029309;28;20042;-47
2023/01/29 12:25:28;;;;;;;36.60;20.98;;;5.60;64.40;;;;;;5026766;28;20125;-48
2023/01/29 12:28:06;;;;;;;38.17;21.95;;;5.60;64.10;;;;;;5019634;28;20045;-48
2023/01/29 12:30:59;;;;;;;40.50;22.52;;;5.70;64.20;;;;;;5026312;28;20446;-48
2023/01/29 12:33:49;;;;;;;37.92;22.33;;;5.70;64.00;;;;;;5029477;28;20472;-47
2023/01/29 12:36:22;;;;;;;34.50;21.10;;;5.80;63.90;;;;;;5031320;28;20124;-48
2023/01/29 12:38:49;;;;;;;36.83;21.15;;;5.80;63.90;;;;;;5030472;28;20516;-48
2023/01/29 12:41:25;;;;;;;36.55;19.20;;;5.80;63.90;;;;;;5026289;28;20046;-46
2023/01/29 12:44:14;;;;;;;36.70;21.88;;;5.90;63.70;;;;;;5026642;28;20132;-47
2023/01/29 12:46:49;;;;;;;36.20;21.10;;;5.90;63.90;;;;;;5027582;28;20099;-49
2023/01/29 12:49:24;;;;;;;33.80;20.13;;;5.90;63.80;;;;;;5026789;28;20076;-48
2023/01/29 12:52:03;;;;;;;38.15;23.02;;;6.00;63.70;;;;;;5027288;28;20466;-48
2023/01/29 12:54:46;;;;;;;35.67;20.77;;;6.00;63.40;;;;;;5024432;28;20128;-49
2023/01/29 12:57:22;;;;;;;37.63;20.92;;;6.10;63.20;;;;;;5033674;28;20069;-50
2023/01/29 13:00:00;;;;;;;32.30;21.13;;;6.10;63.20;;;;;;5029539;28;20051;-49
2023/01/29 13:02:39;;;;;;;33.05;20.08;;;6.10;63.80;;;;;;5023871;28;20053;-47
2023/01/29 13:05:27;;;;;;;37.83;22.40;;;6.10;63.00;;;;;;5022349;28;20057;-47
2023/01/29 13:08:01;;;;;;;33.00;22.15;;;6.20;62.80;;;;;;5026542;28;20115;-48
2023/01/29 13:10:35;;;;;;;37.67;22.83;;;6.20;63.10;;;;;;5030207;28;20113;-49
2023/01/29 13:13:15;;;;;;;40.50;24.60;;;6.20;63.10;;;;;;5022178;28;20528;-47
2023/01/29 13:15:43;;;;;;;38.40;22.45;;;6.30;63.10;;;;;;5024929;28;20051;-50
2023/01/29 13:18:38;;;;;;;38.20;21.92;;;6.30;63.10;;;;;;5027980;28;20401;-48
2023/01/29 13:21:10;;;;;;;35.72;22.15;;;6.40;62.70;;;;;;5023336;28;20140;-47
2023/01/29 13:23:42;;;;;;;36.13;22.45;;;6.40;62.90;;;;;;5023169;28;20041;-49
2023/01/29 13:26:08;;;;;;;33.15;21.17;;;6.40;62.70;;;;;;5028495;28;20048;-49
2023/01/29 13:28:36;;;;;;;36.00;21.48;;;6.40;62.50;;;;;;5029120;28;20041;-47
2023/01/29 13:31:30;;;;;;;36.35;21.35;;;6.40;62.40;;;;;;5025713;28;20041;-51
2023/01/29 13:34:13;;;;;;;38.65;21.52;;;6.40;62.10;;;;;;5026614;28;20056;-47
2023/01/29 13:36:44;;;;;;;36.72;21.20;;;6.30;62.10;;;;;;5023325;28;20553;-46
2023/01/29 13:39:31;;;;;;;35.75;21.23;;;6.30;62.30;;;;;;5030228;28;20049;-47
2023/01/29 13:42:00;;;;;;;29.58;19.67;;;6.20;62.00;;;;;;5029304;28;20044;-47
2023/01/29 13:44:36;;;;;;;30.83;18.02;;;6.20;62.40;;;;;;5024920;28;20172;-47
2023/01/29 13:47:08;;;;;;;33.15;19.75;;;6.20;62.40;;;;;;5032071;28;20124;-48